Startpagina
METAR-TAF:

METAR-TAF

Vliegvelden :

Sibiu, Roemenië

Luchthaven Sibiu

breedte: 45-48N, lengte: 024-09E, hoogte: 443 m

Actueel weer

Dit bericht is 39 minuten geleden gemaakt, om 00:00 UTC
Wind 4 kt uit het zuiden, variërend tussen het zuidoosten en het westzuidwesten
Temperatuur 0°C
Vochtigheid 80%
Druk 1012 hPa
Zicht 10 km of meer
geen wolken onder 1500 m en geen cumulonimbus

METAR: LRSB 220000Z 19004KT 130V240 CAVOK M00/M03 Q1012 NOSIG

Tijdstip: 02:39 (00:39 UTC)

Verwachting

Dit bericht is 1 uur en het 39 minuten geleden gemaakt, om 23:00 UTC
Verwachting geldig van 22 om 00 UTC tot 22 om 24 UTC
Wind 4 kt uit variabele richting
Zicht 10 km of meer
geen wolken onder 1500 m en geen cumulonimbus

TAF: LRSB 212300Z 2200/2224 VRB04KT CAVOK

Waarnemingen en weersverwachtingen van meer dan 4000 vliegvelden (METAR en TAF).

De beschikbare stations zijn de gele en rode punten op de kaart.

Ga met uw muis naar het station om de naam te zien.

Klik dan om waarnemingen en weersverwachtingen te zien.

kaart wijzigen: klik op de groene knoppen met een zwart kruis om in te zoomen, op de groene knop met een streepje om uit te zoomen of op de groene pijlen voor aangrenzende kaarten.


METAR-TAF: